createdAt,value
2022-09-18T00:00:08.438Z,946.22
2022-09-18T00:00:20.436Z,946.18
2022-09-18T00:00:32.436Z,946.16
2022-09-18T00:00:44.434Z,946.14
2022-09-18T00:00:56.425Z,946.14
2022-09-18T00:01:08.424Z,946.17
2022-09-18T00:01:20.430Z,946.19
2022-09-18T00:01:32.609Z,946.19
2022-09-18T00:01:44.525Z,946.22
2022-09-18T00:01:56.559Z,946.23
2022-09-18T00:02:08.470Z,946.18
2022-09-18T00:02:19.509Z,946.08
2022-09-18T00:02:30.501Z,946.12
2022-09-18T00:02:42.590Z,946.10
2022-09-18T00:02:54.440Z,946.11
2022-09-18T00:03:05.436Z,946.15
2022-09-18T00:03:17.457Z,946.15
2022-09-18T00:03:28.435Z,946.16
2022-09-18T00:03:40.433Z,946.17
2022-09-18T00:03:52.432Z,946.18
2022-09-18T00:04:04.452Z,946.19
2022-09-18T00:04:15.441Z,946.19
2022-09-18T00:04:27.433Z,946.15
2022-09-18T00:04:39.424Z,946.16
2022-09-18T00:04:51.419Z,946.17
2022-09-18T00:05:03.413Z,946.18
2022-09-18T00:05:15.414Z,946.19
2022-09-18T00:05:27.416Z,946.18
2022-09-18T00:05:38.417Z,946.17
2022-09-18T00:05:50.419Z,946.18
2022-09-18T00:06:02.427Z,946.15
2022-09-18T00:06:14.417Z,946.15
2022-09-18T00:06:25.428Z,946.16
2022-09-18T00:06:37.427Z,946.21
2022-09-18T00:06:48.434Z,946.14
2022-09-18T00:07:00.429Z,946.15
2022-09-18T00:07:12.424Z,946.24
2022-09-18T00:07:24.416Z,946.11
2022-09-18T00:07:36.409Z,946.15
2022-09-18T00:07:48.398Z,946.10
2022-09-18T00:08:00.392Z,946.14
2022-09-18T00:08:12.383Z,946.16
2022-09-18T00:08:24.380Z,946.15
2022-09-18T00:08:36.374Z,946.14
2022-09-18T00:08:47.380Z,946.15
2022-09-18T00:08:58.390Z,946.13
2022-09-18T00:09:09.381Z,946.13
2022-09-18T00:09:20.373Z,946.13
2022-09-18T00:09:31.373Z,946.12
2022-09-18T00:09:43.378Z,946.15
2022-09-18T00:09:54.375Z,946.15
2022-09-18T00:10:06.377Z,946.15
2022-09-18T00:10:18.373Z,946.15
2022-09-18T00:10:29.461Z,946.16
2022-09-18T00:10:40.459Z,946.17
2022-09-18T00:10:52.461Z,946.18
2022-09-18T00:11:04.461Z,946.18
2022-09-18T00:11:15.466Z,946.18
2022-09-18T00:11:27.453Z,946.18
2022-09-18T00:11:39.457Z,946.20
2022-09-18T00:11:51.456Z,946.16
2022-09-18T00:12:03.455Z,946.15
2022-09-18T00:12:15.451Z,946.18
2022-09-18T00:12:27.443Z,946.20
2022-09-18T00:12:39.445Z,946.16
2022-09-18T00:12:51.506Z,946.20
2022-09-18T00:13:02.375Z,946.11
2022-09-18T00:13:13.409Z,946.18
2022-09-18T00:13:24.365Z,946.14
2022-09-18T00:13:35.460Z,946.14
2022-09-18T00:13:47.454Z,946.16
2022-09-18T00:13:59.575Z,946.15
2022-09-18T00:14:11.416Z,946.15
2022-09-18T00:14:22.421Z,946.18
2022-09-18T00:14:33.420Z,946.18
2022-09-18T00:14:45.417Z,946.16
2022-09-18T00:14:57.410Z,946.17
2022-09-18T00:15:09.407Z,946.17
2022-09-18T00:15:20.413Z,946.15
2022-09-18T00:15:32.413Z,946.17
2022-09-18T00:15:43.502Z,946.16
2022-09-18T00:15:55.455Z,946.18
2022-09-18T00:16:06.466Z,946.16
2022-09-18T00:16:17.485Z,946.17
2022-09-18T00:16:28.531Z,946.16
2022-09-18T00:16:40.508Z,946.16
2022-09-18T00:16:52.401Z,946.15
2022-09-18T00:17:08.903Z,946.18
2022-09-18T00:17:15.423Z,946.17
2022-09-18T00:17:27.425Z,946.17
2022-09-18T00:17:39.432Z,946.17
2022-09-18T00:17:51.763Z,946.15
2022-09-18T00:18:02.457Z,946.16
2022-09-18T00:18:14.464Z,946.16
2022-09-18T00:18:26.443Z,946.17
2022-09-18T00:18:38.440Z,946.17
2022-09-18T00:18:49.438Z,946.18
2022-09-18T00:19:01.455Z,946.19
2022-09-18T00:19:12.365Z,946.18
2022-09-18T00:19:23.379Z,946.17
2022-09-18T00:19:34.389Z,946.11
2022-09-18T00:19:46.386Z,946.13
2022-09-18T00:19:58.405Z,946.16
2022-09-18T00:20:09.406Z,946.17
2022-09-18T00:20:20.408Z,946.17
2022-09-18T00:20:32.407Z,946.17
2022-09-18T00:20:43.409Z,946.18
2022-09-18T00:20:54.411Z,946.18
2022-09-18T00:21:06.409Z,946.18
2022-09-18T00:21:18.419Z,946.18
2022-09-18T00:21:29.415Z,946.15
2022-09-18T00:21:41.405Z,946.15
2022-09-18T00:21:53.403Z,946.14
2022-09-18T00:22:05.404Z,946.15
2022-09-18T00:22:17.399Z,946.18
2022-09-18T00:22:29.398Z,946.19
2022-09-18T00:22:40.400Z,946.17
2022-09-18T00:22:52.397Z,946.17
2022-09-18T00:23:03.398Z,946.19
2022-09-18T00:23:15.396Z,946.17
2022-09-18T00:23:26.397Z,946.19
2022-09-18T00:23:38.400Z,946.20
2022-09-18T00:23:50.386Z,946.18
2022-09-18T00:24:02.450Z,946.17
2022-09-18T00:24:13.403Z,946.17
2022-09-18T00:24:25.397Z,946.18
2022-09-18T00:24:37.394Z,946.15
2022-09-18T00:24:49.398Z,946.20
2022-09-18T00:25:01.390Z,946.16
2022-09-18T00:25:13.386Z,946.17
2022-09-18T00:25:24.371Z,946.18
2022-09-18T00:25:35.461Z,946.18
2022-09-18T00:25:46.468Z,946.18
2022-09-18T00:25:58.371Z,946.17
2022-09-18T00:26:10.827Z,946.19
2022-09-18T00:26:20.418Z,946.17
2022-09-18T00:26:32.406Z,946.19
2022-09-18T00:26:44.410Z,946.22
2022-09-18T00:26:56.417Z,946.19
2022-09-18T00:27:08.416Z,946.16
2022-09-18T00:27:20.418Z,946.17
2022-09-18T00:27:32.417Z,946.18
2022-09-18T00:27:44.421Z,946.20
2022-09-18T00:27:56.413Z,946.18
2022-09-18T00:28:08.408Z,946.19
2022-09-18T00:28:20.298Z,946.18
2022-09-18T00:28:30.428Z,946.18
2022-09-18T00:28:41.431Z,946.19
2022-09-18T00:28:56.083Z,946.19
2022-09-18T00:29:05.517Z,946.20
2022-09-18T00:29:16.439Z,946.21
2022-09-18T00:29:28.428Z,946.23
2022-09-18T00:29:40.421Z,946.21
2022-09-18T00:29:52.418Z,946.21
2022-09-18T00:30:04.405Z,946.23
2022-09-18T00:30:16.401Z,946.21
2022-09-18T00:30:27.401Z,946.22
2022-09-18T00:30:39.396Z,946.22
2022-09-18T00:30:51.391Z,946.24
2022-09-18T00:31:03.453Z,946.23
2022-09-18T00:31:15.485Z,946.22
2022-09-18T00:31:26.448Z,946.23
2022-09-18T00:31:37.483Z,946.23
2022-09-18T00:31:48.529Z,946.21
2022-09-18T00:32:00.389Z,946.22
2022-09-18T00:32:13.061Z,946.21
2022-09-18T00:32:23.368Z,946.21
2022-09-18T00:32:34.465Z,946.25
2022-09-18T00:32:45.465Z,946.28
2022-09-18T00:32:57.374Z,946.26
2022-09-18T00:33:08.369Z,946.17
2022-09-18T00:33:19.369Z,946.21
2022-09-18T00:33:30.454Z,946.23
2022-09-18T00:33:42.452Z,946.23
2022-09-18T00:33:53.458Z,946.23
2022-09-18T00:34:05.470Z,946.18
2022-09-18T00:34:17.390Z,946.25
2022-09-18T00:34:29.382Z,946.24
2022-09-18T00:34:41.382Z,946.24
2022-09-18T00:34:53.378Z,946.24
2022-09-18T00:35:05.370Z,946.24
2022-09-18T00:35:16.651Z,946.27
2022-09-18T00:35:27.448Z,946.25
2022-09-18T00:35:39.437Z,946.23
2022-09-18T00:35:50.449Z,946.26
2022-09-18T00:36:02.436Z,946.21
2022-09-18T00:36:13.436Z,946.22
2022-09-18T00:36:24.436Z,946.20
2022-09-18T00:36:36.441Z,946.22
2022-09-18T00:36:48.436Z,946.21
2022-09-18T00:37:00.424Z,946.19
2022-09-18T00:37:12.433Z,946.19
2022-09-18T00:37:23.432Z,946.21
2022-09-18T00:37:37.053Z,946.21
2022-09-18T00:37:47.391Z,946.21
2022-09-18T00:37:59.383Z,946.23
2022-09-18T00:38:10.385Z,946.22
2022-09-18T00:38:22.377Z,946.24
2022-09-18T00:38:34.380Z,946.22
2022-09-18T00:38:46.382Z,946.23
2022-09-18T00:38:57.385Z,946.24
2022-09-18T00:39:09.396Z,946.21
2022-09-18T00:39:21.387Z,946.24
2022-09-18T00:39:33.386Z,946.23
2022-09-18T00:39:45.372Z,946.21
2022-09-18T00:39:58.132Z,946.22
2022-09-18T00:40:08.452Z,946.23
2022-09-18T00:40:19.476Z,946.22
2022-09-18T00:40:30.524Z,946.24
2022-09-18T00:40:42.406Z,946.24
2022-09-18T00:40:54.403Z,946.21
2022-09-18T00:41:06.405Z,946.23
2022-09-18T00:41:18.394Z,946.22
2022-09-18T00:41:30.390Z,946.25
2022-09-18T00:41:42.381Z,946.24
2022-09-18T00:41:54.378Z,946.24
2022-09-18T00:42:06.381Z,946.25
2022-09-18T00:42:17.469Z,946.27
2022-09-18T00:42:28.473Z,946.27
2022-09-18T00:42:40.466Z,946.26
2022-09-18T00:42:51.369Z,946.27
2022-09-18T00:43:02.369Z,946.27
2022-09-18T00:43:13.365Z,946.26
2022-09-18T00:43:24.453Z,946.28
2022-09-18T00:43:35.465Z,946.28
2022-09-18T00:43:47.456Z,946.28
2022-09-18T00:43:59.449Z,946.28
2022-09-18T00:44:11.586Z,946.28
2022-09-18T00:44:23.398Z,946.26
2022-09-18T00:44:35.420Z,946.26
2022-09-18T00:44:47.391Z,946.24
2022-09-18T00:44:59.385Z,946.25
2022-09-18T00:45:10.385Z,946.26
2022-09-18T00:45:21.383Z,946.26
2022-09-18T00:45:32.396Z,946.27
2022-09-18T00:45:43.388Z,946.28
2022-09-18T00:45:54.386Z,946.27
2022-09-18T00:46:06.421Z,946.27
2022-09-18T00:46:18.429Z,946.28
2022-09-18T00:46:30.462Z,946.29
2022-09-18T00:46:41.461Z,946.32
2022-09-18T00:46:53.439Z,946.32
2022-09-18T00:47:04.422Z,946.33
2022-09-18T00:47:15.419Z,946.33
2022-09-18T00:47:27.419Z,946.33
2022-09-18T00:47:39.421Z,946.33
2022-09-18T00:47:51.422Z,946.32
2022-09-18T00:48:02.426Z,946.32
2022-09-18T00:48:14.424Z,946.33
2022-09-18T00:48:26.440Z,946.31
2022-09-18T00:48:44.091Z,946.29
2022-09-18T00:48:48.488Z,946.29
2022-09-18T00:49:00.380Z,946.30
2022-09-18T00:49:11.482Z,946.30
2022-09-18T00:49:23.375Z,946.29
2022-09-18T00:49:34.470Z,946.32
2022-09-18T00:49:46.468Z,946.29
2022-09-18T00:49:58.093Z,946.28
2022-09-18T00:50:08.387Z,946.29
2022-09-18T00:50:19.469Z,946.29
2022-09-18T00:50:31.460Z,946.27
2022-09-18T00:50:43.454Z,946.29
2022-09-18T00:50:54.461Z,946.30
2022-09-18T00:51:06.462Z,946.27
2022-09-18T00:51:17.464Z,946.26
2022-09-18T00:51:29.488Z,946.28
2022-09-18T00:51:41.421Z,946.28
2022-09-18T00:51:52.427Z,946.28
2022-09-18T00:52:04.419Z,946.28
2022-09-18T00:52:16.408Z,946.29
2022-09-18T00:52:27.412Z,946.29
2022-09-18T00:52:39.423Z,946.29
2022-09-18T00:52:50.428Z,946.30
2022-09-18T00:53:02.419Z,946.32
2022-09-18T00:53:13.423Z,946.29
2022-09-18T00:53:24.430Z,946.31
2022-09-18T00:53:36.430Z,946.29
2022-09-18T00:53:48.419Z,946.28
2022-09-18T00:54:00.479Z,946.27
2022-09-18T00:54:11.435Z,946.26
2022-09-18T00:54:23.450Z,946.26
2022-09-18T00:54:34.459Z,946.25
2022-09-18T00:54:45.458Z,946.29
2022-09-18T00:54:57.457Z,946.31
2022-09-18T00:55:09.455Z,946.29
2022-09-18T00:55:21.453Z,946.26
2022-09-18T00:55:33.466Z,946.30
2022-09-18T00:55:44.469Z,946.28
2022-09-18T00:55:56.468Z,946.26
2022-09-18T00:56:08.376Z,946.28
2022-09-18T00:56:20.093Z,946.26
2022-09-18T00:56:30.382Z,946.29
2022-09-18T00:56:42.384Z,946.30
2022-09-18T00:56:53.392Z,946.30
2022-09-18T00:57:05.391Z,946.30
2022-09-18T00:57:17.392Z,946.29
2022-09-18T00:57:29.390Z,946.29
2022-09-18T00:57:41.384Z,946.32
2022-09-18T00:57:53.374Z,946.30
2022-09-18T00:58:04.466Z,946.31
2022-09-18T00:58:16.482Z,946.32
2022-09-18T00:58:27.463Z,946.32
2022-09-18T00:58:39.457Z,946.28
2022-09-18T00:58:51.454Z,946.30
2022-09-18T00:59:03.445Z,946.33
2022-09-18T00:59:14.581Z,946.28
2022-09-18T00:59:26.400Z,946.33
2022-09-18T00:59:38.391Z,946.32
2022-09-18T00:59:50.387Z,946.28
2022-09-18T01:00:01.385Z,946.35
2022-09-18T01:00:13.665Z,946.33
2022-09-18T01:00:24.391Z,946.30
2022-09-18T01:00:36.429Z,946.36
2022-09-18T01:00:48.432Z,946.32
2022-09-18T01:00:59.404Z,946.33
2022-09-18T01:01:10.457Z,946.33
2022-09-18T01:01:21.514Z,946.34
2022-09-18T01:01:33.487Z,946.33
2022-09-18T01:01:44.495Z,946.32
2022-09-18T01:01:55.550Z,946.32
2022-09-18T01:02:06.521Z,946.30
2022-09-18T01:02:18.484Z,946.29
2022-09-18T01:02:29.515Z,946.31
2022-09-18T01:02:41.384Z,946.36
2022-09-18T01:02:53.385Z,946.37
2022-09-18T01:03:05.384Z,946.35
2022-09-18T01:03:17.378Z,946.34
2022-09-18T01:03:28.378Z,946.36
2022-09-18T01:03:39.374Z,946.32
2022-09-18T01:03:50.510Z,946.32
2022-09-18T01:04:02.454Z,946.31
2022-09-18T01:04:14.456Z,946.31
2022-09-18T01:04:26.461Z,946.32
2022-09-18T01:04:38.538Z,946.34
2022-09-18T01:04:49.389Z,946.32
2022-09-18T01:05:01.388Z,946.37
2022-09-18T01:05:13.383Z,946.31
2022-09-18T01:05:25.376Z,946.35
2022-09-18T01:05:36.381Z,946.35
2022-09-18T01:05:47.375Z,946.33
2022-09-18T01:05:59.378Z,946.36
2022-09-18T01:06:11.379Z,946.33
2022-09-18T01:06:23.392Z,946.37
2022-09-18T01:06:35.382Z,946.36
2022-09-18T01:06:47.376Z,946.38
2022-09-18T01:06:58.372Z,946.40
2022-09-18T01:07:09.482Z,946.40
2022-09-18T01:07:21.372Z,946.43
2022-09-18T01:07:32.463Z,946.42
2022-09-18T01:07:44.454Z,946.43
2022-09-18T01:07:56.449Z,946.42
2022-09-18T01:08:08.439Z,946.43
2022-09-18T01:08:19.450Z,946.43
2022-09-18T01:08:31.451Z,946.45
2022-09-18T01:08:44.176Z,946.44
2022-09-18T01:08:54.410Z,946.45
2022-09-18T01:09:06.405Z,946.44
2022-09-18T01:09:28.021Z,946.43
2022-09-18T01:09:30.417Z,946.42
2022-09-18T01:09:40.415Z,946.41
2022-09-18T01:09:52.416Z,946.42
2022-09-18T01:10:03.415Z,946.43
2022-09-18T01:10:15.423Z,946.42
2022-09-18T01:10:26.425Z,946.44
2022-09-18T01:10:38.426Z,946.45
2022-09-18T01:10:50.424Z,946.45
2022-09-18T01:11:02.413Z,946.45
2022-09-18T01:11:14.418Z,946.40
2022-09-18T01:11:26.419Z,946.39
2022-09-18T01:11:37.418Z,946.39
2022-09-18T01:11:49.406Z,946.38
2022-09-18T01:12:01.405Z,946.36
2022-09-18T01:12:13.398Z,946.36
2022-09-18T01:12:25.391Z,946.35
2022-09-18T01:12:37.380Z,946.37
2022-09-18T01:12:49.375Z,946.38
2022-09-18T01:13:00.385Z,946.35
2022-09-18T01:13:11.464Z,946.37
2022-09-18T01:13:22.481Z,946.40
2022-09-18T01:13:34.460Z,946.40
2022-09-18T01:13:46.464Z,946.43
2022-09-18T01:13:58.463Z,946.43
2022-09-18T01:14:10.454Z,946.38
2022-09-18T01:14:22.580Z,946.40
2022-09-18T01:14:34.420Z,946.40
2022-09-18T01:14:45.415Z,946.41
2022-09-18T01:14:57.413Z,946.42
2022-09-18T01:15:09.406Z,946.42
2022-09-18T01:15:21.411Z,946.43
2022-09-18T01:15:33.401Z,946.45
2022-09-18T01:15:44.469Z,946.44
2022-09-18T01:15:56.442Z,946.41
2022-09-18T01:16:08.474Z,946.37
2022-09-18T01:16:19.574Z,946.37
2022-09-18T01:16:31.511Z,946.34
2022-09-18T01:16:43.387Z,946.38
2022-09-18T01:16:55.385Z,946.40
2022-09-18T01:17:06.383Z,946.40
2022-09-18T01:17:17.386Z,946.40
2022-09-18T01:17:29.383Z,946.42
2022-09-18T01:17:41.375Z,946.44
2022-09-18T01:17:52.470Z,946.44
2022-09-18T01:18:04.374Z,946.42
2022-09-18T01:18:15.461Z,946.42
2022-09-18T01:18:27.466Z,946.43
2022-09-18T01:18:39.471Z,946.44
2022-09-18T01:18:51.496Z,946.42
2022-09-18T01:19:02.466Z,946.44
2022-09-18T01:19:13.471Z,946.46
2022-09-18T01:19:25.472Z,946.49
2022-09-18T01:19:37.476Z,946.51
2022-09-18T01:19:48.372Z,946.48
2022-09-18T01:19:59.372Z,946.46
2022-09-18T01:20:10.375Z,946.51
2022-09-18T01:20:21.376Z,946.51
2022-09-18T01:20:32.471Z,946.51
2022-09-18T01:20:44.461Z,946.53
2022-09-18T01:20:56.463Z,946.53
2022-09-18T01:21:08.464Z,946.52
2022-09-18T01:21:20.464Z,946.51
2022-09-18T01:21:31.465Z,946.49
2022-09-18T01:21:42.462Z,946.48
2022-09-18T01:21:54.451Z,946.49
2022-09-18T01:22:06.453Z,946.50
2022-09-18T01:22:18.481Z,946.51
2022-09-18T01:22:30.441Z,946.54
2022-09-18T01:22:42.440Z,946.52
2022-09-18T01:22:54.436Z,946.54
2022-09-18T01:23:06.437Z,946.54
2022-09-18T01:23:18.435Z,946.56
2022-09-18T01:23:30.432Z,946.53
2022-09-18T01:23:42.417Z,946.56
2022-09-18T01:23:54.409Z,946.54
2022-09-18T01:24:06.411Z,946.56
2022-09-18T01:24:18.411Z,946.55
2022-09-18T01:24:30.429Z,946.52
2022-09-18T01:24:41.416Z,946.53
2022-09-18T01:24:53.412Z,946.53
2022-09-18T01:25:05.407Z,946.53
2022-09-18T01:25:17.403Z,946.53
2022-09-18T01:25:29.401Z,946.54
2022-09-18T01:25:41.393Z,946.54
2022-09-18T01:25:53.390Z,946.52
2022-09-18T01:26:04.394Z,946.53
2022-09-18T01:26:16.396Z,946.53
2022-09-18T01:26:28.392Z,946.54
2022-09-18T01:26:40.383Z,946.52
2022-09-18T01:26:52.386Z,946.56
2022-09-18T01:27:04.380Z,946.52
2022-09-18T01:27:16.411Z,946.54
2022-09-18T01:27:27.469Z,946.44
2022-09-18T01:27:39.495Z,946.45
2022-09-18T01:27:51.459Z,946.46
2022-09-18T01:28:03.460Z,946.46
2022-09-18T01:28:15.463Z,946.47
2022-09-18T01:28:27.460Z,946.46
2022-09-18T01:28:39.456Z,946.47
2022-09-18T01:28:50.469Z,946.43
2022-09-18T01:29:02.455Z,946.41
2022-09-18T01:29:14.455Z,946.41
2022-09-18T01:29:26.573Z,946.39
2022-09-18T01:29:38.416Z,946.42
2022-09-18T01:29:50.409Z,946.39
2022-09-18T01:30:02.415Z,946.39
2022-09-18T01:30:14.416Z,946.41
2022-09-18T01:30:26.417Z,946.43
2022-09-18T01:30:38.409Z,946.42
2022-09-18T01:30:50.443Z,946.47
2022-09-18T01:31:02.420Z,946.47
2022-09-18T01:31:14.449Z,946.46
2022-09-18T01:31:25.487Z,946.48
2022-09-18T01:31:36.490Z,946.49
2022-09-18T01:31:47.491Z,946.48
2022-09-18T01:31:59.384Z,946.50
2022-09-18T01:32:11.377Z,946.52
2022-09-18T01:32:23.379Z,946.46
2022-09-18T01:32:34.467Z,946.47
2022-09-18T01:32:46.370Z,946.51
2022-09-18T01:32:57.494Z,946.47
2022-09-18T01:33:09.464Z,946.46
2022-09-18T01:33:21.460Z,946.47
2022-09-18T01:33:32.459Z,946.46
2022-09-18T01:33:44.461Z,946.48
2022-09-18T01:33:55.461Z,946.43
2022-09-18T01:34:07.450Z,946.45
2022-09-18T01:34:19.443Z,946.45
2022-09-18T01:34:31.464Z,946.46
2022-09-18T01:34:42.462Z,946.48
2022-09-18T01:34:53.465Z,946.49
2022-09-18T01:35:14.051Z,946.50
2022-09-18T01:35:37.157Z,946.51
2022-09-18T01:35:41.044Z,946.53
2022-09-18T01:35:42.625Z,946.49
2022-09-18T01:35:51.472Z,946.49
2022-09-18T01:36:03.463Z,946.48
2022-09-18T01:36:14.473Z,946.49
2022-09-18T01:36:26.466Z,946.51
2022-09-18T01:36:38.454Z,946.52
2022-09-18T01:36:50.458Z,946.50
2022-09-18T01:37:02.443Z,946.48
2022-09-18T01:37:14.442Z,946.49
2022-09-18T01:37:26.437Z,946.50
2022-09-18T01:37:38.441Z,946.49
2022-09-18T01:37:49.439Z,946.50
2022-09-18T01:38:01.441Z,946.50
2022-09-18T01:38:12.444Z,946.51
2022-09-18T01:38:23.454Z,946.52
2022-09-18T01:38:35.451Z,946.50
2022-09-18T01:38:47.451Z,946.50
2022-09-18T01:38:58.594Z,946.48
2022-09-18T01:39:10.442Z,946.51
2022-09-18T01:39:21.458Z,946.50
2022-09-18T01:39:33.468Z,946.52
2022-09-18T01:39:44.454Z,946.54
2022-09-18T01:39:56.454Z,946.54
2022-09-18T01:40:07.522Z,946.53
2022-09-18T01:40:19.451Z,946.50
2022-09-18T01:40:31.504Z,946.49
2022-09-18T01:40:42.461Z,946.49
2022-09-18T01:40:54.462Z,946.49
2022-09-18T01:41:06.458Z,946.48
2022-09-18T01:41:17.460Z,946.48
2022-09-18T01:41:29.456Z,946.49
2022-09-18T01:41:40.460Z,946.50
2022-09-18T01:41:52.456Z,946.50
2022-09-18T01:42:04.445Z,946.50
2022-09-18T01:42:15.448Z,946.52
2022-09-18T01:42:27.449Z,946.50
2022-09-18T01:42:39.453Z,946.48
2022-09-18T01:42:51.440Z,946.49
2022-09-18T01:43:03.438Z,946.51
2022-09-18T01:43:14.436Z,946.52
2022-09-18T01:43:26.428Z,946.49
2022-09-18T01:43:38.425Z,946.52
2022-09-18T01:43:50.414Z,946.45
2022-09-18T01:44:02.401Z,946.50
2022-09-18T01:44:14.386Z,946.52
2022-09-18T01:44:26.382Z,946.53
2022-09-18T01:44:38.511Z,946.49
2022-09-18T01:44:49.429Z,946.50
2022-09-18T01:45:01.437Z,946.49
2022-09-18T01:45:13.419Z,946.50
2022-09-18T01:45:25.417Z,946.47
2022-09-18T01:45:37.420Z,946.52
2022-09-18T01:45:48.421Z,946.47
2022-09-18T01:46:00.411Z,946.51
2022-09-18T01:46:12.489Z,946.51
2022-09-18T01:46:23.441Z,946.51
2022-09-18T01:46:34.459Z,946.53
2022-09-18T01:46:45.458Z,946.54
2022-09-18T01:46:57.474Z,946.57
2022-09-18T01:47:09.577Z,946.48
2022-09-18T01:47:19.451Z,946.47
2022-09-18T01:47:31.442Z,946.51
2022-09-18T01:47:43.434Z,946.50
2022-09-18T01:47:54.441Z,946.51
2022-09-18T01:48:06.439Z,946.51
2022-09-18T01:48:18.435Z,946.51
2022-09-18T01:48:30.428Z,946.50
2022-09-18T01:48:42.428Z,946.50
2022-09-18T01:48:54.416Z,946.48
2022-09-18T01:49:06.414Z,946.50
2022-09-18T01:49:17.415Z,946.47
2022-09-18T01:49:29.410Z,946.46
2022-09-18T01:49:40.428Z,946.44
2022-09-18T01:49:51.418Z,946.44
2022-09-18T01:50:03.421Z,946.44
2022-09-18T01:50:15.411Z,946.40
2022-09-18T01:50:27.412Z,946.38
2022-09-18T01:50:39.413Z,946.38
2022-09-18T01:50:51.416Z,946.39
2022-09-18T01:51:03.426Z,946.39
2022-09-18T01:51:15.425Z,946.40
2022-09-18T01:51:27.429Z,946.40
2022-09-18T01:51:39.420Z,946.38
2022-09-18T01:51:51.412Z,946.38
2022-09-18T01:52:02.414Z,946.37
2022-09-18T01:52:14.408Z,946.36
2022-09-18T01:52:26.400Z,946.37
2022-09-18T01:52:38.393Z,946.34
2022-09-18T01:52:50.388Z,946.35
2022-09-18T01:53:02.377Z,946.36
2022-09-18T01:53:14.478Z,946.39
2022-09-18T01:53:25.407Z,946.39
2022-09-18T01:53:37.397Z,946.40
2022-09-18T01:53:49.399Z,946.44
2022-09-18T01:54:02.279Z,946.39
2022-09-18T01:54:13.389Z,946.39
2022-09-18T01:54:25.388Z,946.40
2022-09-18T01:54:37.383Z,946.42
2022-09-18T01:54:48.400Z,946.43
2022-09-18T01:54:59.396Z,946.42
2022-09-18T01:55:11.393Z,946.43
2022-09-18T01:55:23.392Z,946.43
2022-09-18T01:55:35.379Z,946.41
2022-09-18T01:55:47.388Z,946.42
2022-09-18T01:55:58.381Z,946.43
2022-09-18T01:56:10.385Z,946.46
2022-09-18T01:56:21.382Z,946.42
2022-09-18T01:56:33.374Z,946.42
2022-09-18T01:56:44.365Z,946.43
2022-09-18T01:56:55.465Z,946.42
2022-09-18T01:57:07.458Z,946.42
2022-09-18T01:57:19.456Z,946.45
2022-09-18T01:57:31.455Z,946.46
2022-09-18T01:57:43.468Z,946.45
2022-09-18T01:57:55.444Z,946.43
2022-09-18T01:58:08.211Z,946.41
2022-09-18T01:58:19.387Z,946.42
2022-09-18T01:58:31.377Z,946.43
2022-09-18T01:58:43.381Z,946.42
2022-09-18T01:58:55.380Z,946.44
2022-09-18T01:59:06.373Z,946.46
2022-09-18T01:59:18.372Z,946.45
2022-09-18T01:59:30.369Z,946.45
2022-09-18T01:59:41.470Z,946.45
2022-09-18T01:59:53.578Z,946.47
2022-09-18T02:00:05.400Z,946.47
2022-09-18T02:00:17.399Z,946.48
2022-09-18T02:00:29.388Z,946.47
2022-09-18T02:00:41.391Z,946.46
2022-09-18T02:00:53.387Z,946.46
2022-09-18T02:01:05.372Z,946.47
2022-09-18T02:01:16.496Z,946.47
2022-09-18T02:01:27.535Z,946.46
2022-09-18T02:01:39.560Z,946.44
2022-09-18T02:01:51.611Z,946.45
2022-09-18T02:02:02.562Z,946.44
2022-09-18T02:02:13.688Z,946.44
2022-09-18T02:02:25.543Z,946.46
2022-09-18T02:02:36.698Z,946.47
2022-09-18T02:02:48.441Z,946.44
2022-09-18T02:02:59.517Z,946.45
2022-09-18T02:03:11.383Z,946.44
2022-09-18T02:03:23.391Z,946.43
2022-09-18T02:03:35.390Z,946.42
2022-09-18T02:03:47.496Z,946.42
2022-09-18T02:03:59.384Z,946.43
2022-09-18T02:04:10.385Z,946.42
2022-09-18T02:04:22.382Z,946.39
2022-09-18T02:04:34.388Z,946.37
2022-09-18T02:04:46.388Z,946.39
2022-09-18T02:04:57.383Z,946.39
2022-09-18T02:05:09.367Z,946.37
2022-09-18T02:05:20.456Z,946.40
2022-09-18T02:05:32.469Z,946.39
2022-09-18T02:05:44.455Z,946.39
2022-09-18T02:05:56.445Z,946.39
2022-09-18T02:06:07.446Z,946.39
2022-09-18T02:06:18.445Z,946.39
2022-09-18T02:06:30.446Z,946.38
2022-09-18T02:06:42.447Z,946.41
2022-09-18T02:06:54.446Z,946.42
2022-09-18T02:07:06.443Z,946.42
2022-09-18T02:07:18.441Z,946.40
2022-09-18T02:07:30.450Z,946.41
2022-09-18T02:07:42.428Z,946.39
2022-09-18T02:07:54.430Z,946.37
2022-09-18T02:08:06.417Z,946.36
2022-09-18T02:08:18.416Z,946.39
2022-09-18T02:08:30.409Z,946.40
2022-09-18T02:08:42.404Z,946.41
2022-09-18T02:08:54.407Z,946.38
2022-09-18T02:09:06.408Z,946.38
2022-09-18T02:09:18.395Z,946.37
2022-09-18T02:09:30.396Z,946.37
2022-09-18T02:09:42.402Z,946.36
2022-09-18T02:09:54.415Z,946.37
2022-09-18T02:10:05.442Z,946.35
2022-09-18T02:10:16.461Z,946.35
2022-09-18T02:10:27.363Z,946.37
2022-09-18T02:10:38.368Z,946.34
2022-09-18T02:10:49.363Z,946.34
2022-09-18T02:11:00.463Z,946.35
2022-09-18T02:11:12.469Z,946.37
2022-09-18T02:11:24.450Z,946.34
2022-09-18T02:11:35.448Z,946.37
2022-09-18T02:11:47.438Z,946.41
2022-09-18T02:11:58.452Z,946.42
2022-09-18T02:12:10.450Z,946.39
2022-09-18T02:12:22.444Z,946.37
2022-09-18T02:12:34.443Z,946.37
2022-09-18T02:12:46.438Z,946.38
2022-09-18T02:12:57.438Z,946.37
2022-09-18T02:13:08.446Z,946.34
2022-09-18T02:13:20.443Z,946.35
2022-09-18T02:13:32.441Z,946.33
2022-09-18T02:13:44.435Z,946.35
2022-09-18T02:13:56.436Z,946.37
2022-09-18T02:14:08.429Z,946.39
2022-09-18T02:14:20.424Z,946.40
2022-09-18T02:14:32.428Z,946.37
2022-09-18T02:14:44.441Z,946.40
2022-09-18T02:14:55.427Z,946.43
2022-09-18T02:15:07.545Z,946.44
2022-09-18T02:15:18.458Z,946.41
2022-09-18T02:15:30.456Z,946.42
2022-09-18T02:15:42.511Z,946.44
2022-09-18T02:15:54.416Z,946.42
2022-09-18T02:16:06.442Z,946.37
2022-09-18T02:16:17.476Z,946.34
2022-09-18T02:16:28.462Z,946.30
2022-09-18T02:16:40.428Z,946.29
2022-09-18T02:16:54.117Z,946.32
2022-09-18T02:17:03.404Z,946.35
2022-09-18T02:17:15.404Z,946.31
2022-09-18T02:17:26.405Z,946.32
2022-09-18T02:17:38.405Z,946.30
2022-09-18T02:17:49.414Z,946.31
2022-09-18T02:18:01.413Z,946.31
2022-09-18T02:18:12.414Z,946.32
2022-09-18T02:18:24.412Z,946.32
2022-09-18T02:18:35.415Z,946.32
2022-09-18T02:18:47.413Z,946.33
2022-09-18T02:18:59.407Z,946.35
2022-09-18T02:19:11.405Z,946.38
2022-09-18T02:19:23.394Z,946.40
2022-09-18T02:19:35.389Z,946.41
2022-09-18T02:19:47.398Z,946.42
2022-09-18T02:19:58.387Z,946.41
2022-09-18T02:20:10.385Z,946.41
2022-09-18T02:20:21.391Z,946.40
2022-09-18T02:20:33.368Z,946.41
2022-09-18T02:20:44.465Z,946.42
2022-09-18T02:20:56.452Z,946.41
2022-09-18T02:21:08.451Z,946.40
2022-09-18T02:21:20.445Z,946.42
2022-09-18T02:21:32.436Z,946.41
2022-09-18T02:21:44.431Z,946.39
2022-09-18T02:21:56.437Z,946.39
2022-09-18T02:22:08.442Z,946.41
2022-09-18T02:22:20.437Z,946.39
2022-09-18T02:22:31.444Z,946.39
2022-09-18T02:22:43.447Z,946.40
2022-09-18T02:22:55.447Z,946.40
2022-09-18T02:23:06.452Z,946.36
2022-09-18T02:23:17.451Z,946.38
2022-09-18T02:23:29.446Z,946.35
2022-09-18T02:23:40.450Z,946.36
2022-09-18T02:23:52.441Z,946.40
2022-09-18T02:24:04.436Z,946.36
2022-09-18T02:24:16.431Z,946.35
2022-09-18T02:24:27.441Z,946.34
2022-09-18T02:24:39.442Z,946.33
2022-09-18T02:24:51.462Z,946.32
2022-09-18T02:25:02.372Z,946.33
2022-09-18T02:25:13.460Z,946.35
2022-09-18T02:25:25.455Z,946.36
2022-09-18T02:25:37.453Z,946.34